sensor_id;sensor_type;location;lat;lon;timestamp;pressure;altitude;pressure_sealevel;temperature;humidity
74230;BME280;62589;12.568;99.958;2023-05-29T00:02:21;100524.19;;;34.67;51.59
74230;BME280;62589;12.568;99.958;2023-05-29T00:04:48;100533.34;;;34.68;51.68
74230;BME280;62589;12.568;99.958;2023-05-29T00:07:15;100532.13;;;34.69;51.63
74230;BME280;62589;12.568;99.958;2023-05-29T00:09:42;100541.66;;;34.71;51.63
74230;BME280;62589;12.568;99.958;2023-05-29T00:12:08;100543.69;;;34.71;51.50
74230;BME280;62589;12.568;99.958;2023-05-29T00:14:35;100548.81;;;34.72;51.72
74230;BME280;62589;12.568;99.958;2023-05-29T00:17:02;100552.81;;;34.75;51.10
74230;BME280;62589;12.568;99.958;2023-05-29T00:19:28;100561.16;;;34.75;51.45
74230;BME280;62589;12.568;99.958;2023-05-29T00:21:55;100559.19;;;34.79;51.02
74230;BME280;62589;12.568;99.958;2023-05-29T00:24:22;100567.56;;;34.79;50.70
74230;BME280;62589;12.568;99.958;2023-05-29T00:26:48;100573.53;;;34.81;50.71
74230;BME280;62589;12.568;99.958;2023-05-29T00:29:15;100576.31;;;34.81;50.47
74230;BME280;62589;12.568;99.958;2023-05-29T00:31:42;100588.66;;;34.84;50.81
74230;BME280;62589;12.568;99.958;2023-05-29T00:34:08;100589.06;;;34.86;50.38
74230;BME280;62589;12.568;99.958;2023-05-29T00:36:35;100592.63;;;34.86;50.50
74230;BME280;62589;12.568;99.958;2023-05-29T00:39:02;100598.59;;;34.88;50.62
74230;BME280;62589;12.568;99.958;2023-05-29T00:41:29;100606.97;;;34.88;51.01
74230;BME280;62589;12.568;99.958;2023-05-29T00:43:55;100613.31;;;34.92;50.56
74230;BME280;62589;12.568;99.958;2023-05-29T00:46:22;100624.06;;;34.94;51.18
74230;BME280;62589;12.568;99.958;2023-05-29T00:48:48;100625.25;;;34.96;50.67
74230;BME280;62589;12.568;99.958;2023-05-29T00:51:16;100634.78;;;34.99;51.21
74230;BME280;62589;12.568;99.958;2023-05-29T00:53:43;100634.78;;;34.99;50.76
74230;BME280;62589;12.568;99.958;2023-05-29T00:56:11;100633.19;;;35.01;51.26
74230;BME280;62589;12.568;99.958;2023-05-29T00:58:38;100637.97;;;35.04;50.91
74230;BME280;62589;12.568;99.958;2023-05-29T01:01:04;100625.22;;;35.03;50.91
74230;BME280;62589;12.568;99.958;2023-05-29T01:03:32;100627.59;;;35.05;50.65
74230;BME280;62589;12.568;99.958;2023-05-29T01:05:58;100633.97;;;35.09;50.51
74230;BME280;62589;12.568;99.958;2023-05-29T01:08:26;100645.50;;;35.11;50.84
74230;BME280;62589;12.568;99.958;2023-05-29T01:10:59;100648.72;;;35.09;50.58
74230;BME280;62589;12.568;99.958;2023-05-29T01:13:30;100647.91;;;35.12;50.92
74230;BME280;62589;12.568;99.958;2023-05-29T01:16:15;100655.44;;;35.15;51.28
74230;BME280;62589;12.568;99.958;2023-05-29T01:19:06;100661.00;;;35.19;50.84
74230;BME280;62589;12.568;99.958;2023-05-29T01:22:04;100665.78;;;35.22;50.96
74230;BME280;62589;12.568;99.958;2023-05-29T01:24:56;100667.38;;;35.20;51.65
74230;BME280;62589;12.568;99.958;2023-05-29T01:27:25;100673.75;;;35.20;51.40
74230;BME280;62589;12.568;99.958;2023-05-29T01:29:54;100680.53;;;35.19;51.46
74230;BME280;62589;12.568;99.958;2023-05-29T01:32:22;100684.91;;;35.20;51.17
74230;BME280;62589;12.568;99.958;2023-05-29T01:34:51;100694.06;;;35.24;51.02
74230;BME280;62589;12.568;99.958;2023-05-29T01:37:17;100696.06;;;35.24;51.33
74230;BME280;62589;12.568;99.958;2023-05-29T01:39:44;100698.84;;;35.24;51.64
74230;BME280;62589;12.568;99.958;2023-05-29T01:42:10;100704.03;;;35.25;51.59
74230;BME280;62589;12.568;99.958;2023-05-29T01:44:38;100708.03;;;35.28;51.13
74230;BME280;62589;12.568;99.958;2023-05-29T01:47:05;100709.63;;;35.29;51.24
74230;BME280;62589;12.568;99.958;2023-05-29T01:49:32;100718.41;;;35.31;51.08
74230;BME280;62589;12.568;99.958;2023-05-29T01:51:59;100706.03;;;35.32;51.23
74230;BME280;62589;12.568;99.958;2023-05-29T01:54:25;100705.63;;;35.33;51.21
74230;BME280;62589;12.568;99.958;2023-05-29T01:56:52;100698.03;;;35.34;50.52
74230;BME280;62589;12.568;99.958;2023-05-29T01:59:19;100695.63;;;35.36;50.82
74230;BME280;62589;12.568;99.958;2023-05-29T02:01:47;100690.03;;;35.36;50.66
74230;BME280;62589;12.568;99.958;2023-05-29T02:04:14;100680.44;;;35.40;50.75
74230;BME280;62589;12.568;99.958;2023-05-29T02:06:40;100667.69;;;35.39;51.06
74230;BME280;62589;12.568;99.958;2023-05-29T02:09:07;100674.47;;;35.42;50.59
74230;BME280;62589;12.568;99.958;2023-05-29T02:11:33;100666.47;;;35.44;50.29
74230;BME280;62589;12.568;99.958;2023-05-29T02:14:00;100660.88;;;35.47;50.24
74230;BME280;62589;12.568;99.958;2023-05-29T02:16:28;100659.66;;;35.52;50.07
74230;BME280;62589;12.568;99.958;2023-05-29T02:18:55;100655.22;;;35.55;49.92
74230;BME280;62589;12.568;99.958;2023-05-29T02:21:21;100653.59;;;35.57;49.68
74230;BME280;62589;12.568;99.958;2023-05-29T02:23:48;100642.81;;;35.59;49.43
74230;BME280;62589;12.568;99.958;2023-05-29T02:26:14;100644.38;;;35.64;49.43
74230;BME280;62589;12.568;99.958;2023-05-29T02:28:41;100639.97;;;35.66;49.08
74230;BME280;62589;12.568;99.958;2023-05-29T02:31:07;100639.16;;;35.69;48.45
74230;BME280;62589;12.568;99.958;2023-05-29T02:33:34;100633.97;;;35.71;48.12
74230;BME280;62589;12.568;99.958;2023-05-29T02:36:00;100637.13;;;35.73;48.13
74230;BME280;62589;12.568;99.958;2023-05-29T02:38:27;100635.50;;;35.76;47.48
74230;BME280;62589;12.568;99.958;2023-05-29T02:40:53;100641.09;;;35.79;48.05
74230;BME280;62589;12.568;99.958;2023-05-29T02:43:21;100643.47;;;35.81;48.46
74230;BME280;62589;12.568;99.958;2023-05-29T02:45:49;100635.88;;;35.85;48.32
74230;BME280;62589;12.568;99.958;2023-05-29T02:48:15;100636.22;;;35.91;48.32
74230;BME280;62589;12.568;99.958;2023-05-29T02:50:42;100631.81;;;35.93;48.35
74230;BME280;62589;12.568;99.958;2023-05-29T02:53:08;100627.75;;;35.98;48.22
74230;BME280;62589;12.568;99.958;2023-05-29T02:55:34;100629.72;;;36.01;48.00
74230;BME280;62589;12.568;99.958;2023-05-29T02:58:01;100629.66;;;36.08;47.91
74230;BME280;62589;12.568;99.958;2023-05-29T03:00:28;100622.03;;;36.12;47.77
74230;BME280;62589;12.568;99.958;2023-05-29T03:02:55;100617.16;;;36.20;47.71
74230;BME280;62589;12.568;99.958;2023-05-29T03:05:22;100614.31;;;36.27;47.75
74230;BME280;62589;12.568;99.958;2023-05-29T03:07:48;100608.25;;;36.35;47.78
74230;BME280;62589;12.568;99.958;2023-05-29T03:10:15;100606.94;;;36.43;47.55
74230;BME280;62589;12.568;99.958;2023-05-29T03:12:44;100602.84;;;36.52;46.76
74230;BME280;62589;12.568;99.958;2023-05-29T03:15:10;100595.16;;;36.59;46.62
74230;BME280;62589;12.568;99.958;2023-05-29T03:17:37;100590.31;;;36.63;46.44
74230;BME280;62589;12.568;99.958;2023-05-29T03:20:04;100582.25;;;36.69;45.50
74230;BME280;62589;12.568;99.958;2023-05-29T03:22:32;100591.81;;;36.71;45.44
74230;BME280;62589;12.568;99.958;2023-05-29T03:24:58;100583.84;;;36.73;45.49
74230;BME280;62589;12.568;99.958;2023-05-29T03:27:25;100574.19;;;36.78;45.43
74230;BME280;62589;12.568;99.958;2023-05-29T03:29:51;100578.91;;;36.81;45.33
74230;BME280;62589;12.568;99.958;2023-05-29T03:32:18;100576.50;;;36.83;45.57
74230;BME280;62589;12.568;99.958;2023-05-29T03:34:45;100574.06;;;36.85;45.80
74230;BME280;62589;12.568;99.958;2023-05-29T03:37:11;100581.25;;;36.86;45.44
74230;BME280;62589;12.568;99.958;2023-05-29T03:39:37;100581.66;;;36.85;45.76
74230;BME280;62589;12.568;99.958;2023-05-29T03:42:04;100578.03;;;36.88;45.75
74230;BME280;62589;12.568;99.958;2023-05-29T03:44:30;100572.06;;;36.86;45.43
74230;BME280;62589;12.568;99.958;2023-05-29T03:46:57;100564.88;;;36.85;45.39
74230;BME280;62589;12.568;99.958;2023-05-29T03:49:23;100562.09;;;36.85;45.73
74230;BME280;62589;12.568;99.958;2023-05-29T03:51:50;100556.16;;;36.79;45.59
74230;BME280;62589;12.568;99.958;2023-05-29T03:54:17;100550.94;;;36.81;45.50
74230;BME280;62589;12.568;99.958;2023-05-29T03:56:43;100553.38;;;36.79;45.68
74230;BME280;62589;12.568;99.958;2023-05-29T03:59:11;100554.22;;;36.76;45.31
74230;BME280;62589;12.568;99.958;2023-05-29T04:01:37;100556.59;;;36.77;45.21
74230;BME280;62589;12.568;99.958;2023-05-29T04:04:04;100556.22;;;36.75;45.28
74230;BME280;62589;12.568;99.958;2023-05-29T04:06:30;100552.66;;;36.75;45.00
74230;BME280;62589;12.568;99.958;2023-05-29T04:08:57;100545.47;;;36.70;45.71
74230;BME280;62589;12.568;99.958;2023-05-29T04:11:24;100553.47;;;36.72;45.56
74230;BME280;62589;12.568;99.958;2023-05-29T04:13:50;100547.88;;;36.72;45.69
74230;BME280;62589;12.568;99.958;2023-05-29T04:16:18;100547.88;;;36.72;45.99
74230;BME280;62589;12.568;99.958;2023-05-29T04:18:44;100539.13;;;36.66;45.45
74230;BME280;62589;12.568;99.958;2023-05-29T04:21:11;100538.34;;;36.66;44.94
74230;BME280;62589;12.568;99.958;2023-05-29T04:23:37;100536.44;;;36.59;45.44
74230;BME280;62589;12.568;99.958;2023-05-29T04:26:04;100536.50;;;36.56;45.34
74230;BME280;62589;12.568;99.958;2023-05-29T04:28:31;100537.72;;;36.55;45.05
74230;BME280;62589;12.568;99.958;2023-05-29T04:30:57;100538.97;;;36.50;45.20
74230;BME280;62589;12.568;99.958;2023-05-29T04:33:24;100532.19;;;36.47;45.38
74230;BME280;62589;12.568;99.958;2023-05-29T04:35:51;100530.66;;;36.43;45.37
74230;BME280;62589;12.568;99.958;2023-05-29T04:38:18;100525.06;;;36.43;45.36
74230;BME280;62589;12.568;99.958;2023-05-29T04:40:51;100526.31;;;36.38;45.62
74230;BME280;62589;12.568;99.958;2023-05-29T04:43:18;100512.78;;;36.37;45.51
74230;BME280;62589;12.568;99.958;2023-05-29T04:45:44;100512.81;;;36.33;46.00
74230;BME280;62589;12.568;99.958;2023-05-29T04:48:11;100509.28;;;36.29;46.27
74230;BME280;62589;12.568;99.958;2023-05-29T04:50:37;100509.31;;;36.22;46.30
74230;BME280;62589;12.568;99.958;2023-05-29T04:53:04;100498.91;;;36.26;45.79
74230;BME280;62589;12.568;99.958;2023-05-29T04:55:31;100494.94;;;36.24;46.09
74230;BME280;62589;12.568;99.958;2023-05-29T04:57:57;100495.75;;;36.21;46.14
74230;BME280;62589;12.568;99.958;2023-05-29T05:00:24;100496.56;;;36.21;46.09
74230;BME280;62589;12.568;99.958;2023-05-29T05:02:51;100490.97;;;36.21;45.98
74230;BME280;62589;12.568;99.958;2023-05-29T05:05:17;100495.09;;;36.09;46.74
74230;BME280;62589;12.568;99.958;2023-05-29T05:07:44;100487.78;;;36.19;46.63
74230;BME280;62589;12.568;99.958;2023-05-29T05:10:10;100483.78;;;36.20;46.77
74230;BME280;62589;12.568;99.958;2023-05-29T05:12:40;100483.94;;;36.09;46.74
74230;BME280;62589;12.568;99.958;2023-05-29T05:15:07;100479.09;;;36.13;46.75
74230;BME280;62589;12.568;99.958;2023-05-29T05:17:34;100477.50;;;36.12;47.03
74230;BME280;62589;12.568;99.958;2023-05-29T05:20:00;100483.47;;;36.14;47.09
74230;BME280;62589;12.568;99.958;2023-05-29T05:22:27;100489.53;;;36.09;47.40
74230;BME280;62589;12.568;99.958;2023-05-29T05:24:53;100488.72;;;36.09;47.30
74230;BME280;62589;12.568;99.958;2023-05-29T05:27:20;100488.34;;;36.07;47.12
74230;BME280;62589;12.568;99.958;2023-05-29T05:29:46;100482.38;;;36.05;46.99
74230;BME280;62589;12.568;99.958;2023-05-29T05:32:13;100484.72;;;36.10;46.84
74230;BME280;62589;12.568;99.958;2023-05-29T05:34:39;100484.72;;;36.10;46.95
74230;BME280;62589;12.568;99.958;2023-05-29T05:37:06;100477.63;;;36.02;46.91
74230;BME280;62589;12.568;99.958;2023-05-29T05:39:33;100474.38;;;36.07;46.15
74230;BME280;62589;12.568;99.958;2023-05-29T05:41:59;100471.63;;;36.03;46.53
74230;BME280;62589;12.568;99.958;2023-05-29T05:44:27;100459.94;;;36.12;46.50
74230;BME280;62589;12.568;99.958;2023-05-29T05:46:54;100456.47;;;36.01;46.43
74230;BME280;62589;12.568;99.958;2023-05-29T05:49:20;100459.94;;;36.12;46.49
74230;BME280;62589;12.568;99.958;2023-05-29T05:51:47;100452.78;;;36.11;46.86
74230;BME280;62589;12.568;99.958;2023-05-29T05:54:13;100442.75;;;36.13;46.64
74230;BME280;62589;12.568;99.958;2023-05-29T05:56:40;100441.47;;;36.18;46.68
74230;BME280;62589;12.568;99.958;2023-05-29T05:59:06;100441.47;;;36.18;46.56
74230;BME280;62589;12.568;99.958;2023-05-29T06:01:33;100436.66;;;36.22;46.57
74230;BME280;62589;12.568;99.958;2023-05-29T06:03:59;100434.63;;;36.23;46.70
74230;BME280;62589;12.568;99.958;2023-05-29T06:06:26;100435.84;;;36.22;46.66
74230;BME280;62589;12.568;99.958;2023-05-29T06:08:52;100425.50;;;36.19;46.69
74230;BME280;62589;12.568;99.958;2023-05-29T06:11:19;100436.34;;;36.17;46.91
74230;BME280;62589;12.568;99.958;2023-05-29T06:13:45;100431.84;;;36.23;46.97
74230;BME280;62589;12.568;99.958;2023-05-29T06:16:12;100430.25;;;36.22;46.66
74230;BME280;62589;12.568;99.958;2023-05-29T06:18:38;100425.03;;;36.24;46.57
74230;BME280;62589;12.568;99.958;2023-05-29T06:21:05;100434.63;;;36.23;46.68
74230;BME280;62589;12.568;99.958;2023-05-29T06:23:33;100429.84;;;36.23;46.73
74230;BME280;62589;12.568;99.958;2023-05-29T06:25:59;100434.69;;;36.19;46.30
74230;BME280;62589;12.568;99.958;2023-05-29T06:28:26;100428.69;;;36.21;46.54
74230;BME280;62589;12.568;99.958;2023-05-29T06:30:52;100428.41;;;36.11;46.89
74230;BME280;62589;12.568;99.958;2023-05-29T06:33:19;100428.72;;;36.17;47.27
74230;BME280;62589;12.568;99.958;2023-05-29T06:35:47;100426.31;;;36.19;47.25
74230;BME280;62589;12.568;99.958;2023-05-29T06:38:14;100426.69;;;36.21;47.24
74230;BME280;62589;12.568;99.958;2023-05-29T06:40:41;100425.50;;;36.19;46.96
74230;BME280;62589;12.568;99.958;2023-05-29T06:43:07;100431.16;;;36.15;47.48
74230;BME280;62589;12.568;99.958;2023-05-29T06:45:35;100418.88;;;36.09;47.40
74230;BME280;62589;12.568;99.958;2023-05-29T06:48:01;100419.63;;;36.13;47.65
74230;BME280;62589;12.568;99.958;2023-05-29T06:50:29;100411.28;;;36.09;48.08
74230;BME280;62589;12.568;99.958;2023-05-29T06:52:56;100408.06;;;36.11;48.01
74230;BME280;62589;12.568;99.958;2023-05-29T06:55:22;100404.34;;;36.17;48.00
74230;BME280;62589;12.568;99.958;2023-05-29T06:57:49;100400.72;;;36.21;48.07
74230;BME280;62589;12.568;99.958;2023-05-29T07:00:15;100391.13;;;36.25;48.37
74230;BME280;62589;12.568;99.958;2023-05-29T07:02:42;100379.16;;;36.21;47.96
74230;BME280;62589;12.568;99.958;2023-05-29T07:05:08;100383.53;;;36.26;48.02
74230;BME280;62589;12.568;99.958;2023-05-29T07:07:35;100381.94;;;36.21;47.32
74230;BME280;62589;12.568;99.958;2023-05-29T07:10:04;100371.94;;;36.24;46.98
74230;BME280;62589;12.568;99.958;2023-05-29T07:12:32;100369.81;;;36.35;46.76
74230;BME280;62589;12.568;99.958;2023-05-29T07:14:58;100363.06;;;36.32;45.55
74230;BME280;62589;12.568;99.958;2023-05-29T07:17:24;100358.31;;;36.29;45.89
74230;BME280;62589;12.568;99.958;2023-05-29T07:19:54;100354.22;;;36.37;46.62
74230;BME280;62589;12.568;99.958;2023-05-29T07:22:23;100352.19;;;36.38;46.81
74230;BME280;62589;12.568;99.958;2023-05-29T07:24:50;100343.31;;;36.43;46.89
74230;BME280;62589;12.568;99.958;2023-05-29T07:27:17;100342.16;;;36.40;47.13
74230;BME280;62589;12.568;99.958;2023-05-29T07:29:43;100336.19;;;36.38;47.33
74230;BME280;62589;12.568;99.958;2023-05-29T07:32:09;100330.94;;;36.44;47.69
74230;BME280;62589;12.568;99.958;2023-05-29T07:34:36;100323.88;;;36.36;47.74
74230;BME280;62589;12.568;99.958;2023-05-29T07:37:05;100328.13;;;36.44;47.39
74230;BME280;62589;12.568;99.958;2023-05-29T07:39:33;100321.63;;;36.51;46.80
74230;BME280;62589;12.568;99.958;2023-05-29T07:42:01;100318.09;;;36.46;47.10
74230;BME280;62589;12.568;99.958;2023-05-29T07:44:28;100314.16;;;36.44;47.73
74230;BME280;62589;12.568;99.958;2023-05-29T07:46:55;100310.94;;;36.45;48.02
74230;BME280;62589;12.568;99.958;2023-05-29T07:49:21;100308.59;;;36.40;48.36
74230;BME280;62589;12.568;99.958;2023-05-29T07:51:48;100310.75;;;36.33;48.25
74230;BME280;62589;12.568;99.958;2023-05-29T07:54:14;100299.16;;;36.34;48.53
74230;BME280;62589;12.568;99.958;2023-05-29T07:56:43;100296.81;;;36.29;49.13
74230;BME280;62589;12.568;99.958;2023-05-29T07:59:10;100287.47;;;36.39;48.61
74230;BME280;62589;12.568;99.958;2023-05-29T08:01:37;100282.75;;;36.36;49.05
74230;BME280;62589;12.568;99.958;2023-05-29T08:04:05;100289.69;;;36.25;49.43
74230;BME280;62589;12.568;99.958;2023-05-29T08:06:31;100287.22;;;36.30;49.10
74230;BME280;62589;12.568;99.958;2023-05-29T08:08:59;100296.16;;;36.18;49.53
74230;BME280;62589;12.568;99.958;2023-05-29T08:11:26;100298.94;;;36.18;49.64
74230;BME280;62589;12.568;99.958;2023-05-29T08:13:52;100301.66;;;36.25;49.20
74230;BME280;62589;12.568;99.958;2023-05-29T08:16:19;100297.69;;;36.23;49.35
74230;BME280;62589;12.568;99.958;2023-05-29T08:18:45;100299.25;;;36.27;49.51
74230;BME280;62589;12.568;99.958;2023-05-29T08:21:12;100295.19;;;36.32;49.58
74230;BME280;62589;12.568;99.958;2023-05-29T08:23:38;100293.97;;;36.33;49.57
74230;BME280;62589;12.568;99.958;2023-05-29T08:26:05;100299.56;;;36.33;49.87
74230;BME280;62589;12.568;99.958;2023-05-29T08:28:32;100297.13;;;36.35;49.65
74230;BME280;62589;12.568;99.958;2023-05-29T08:30:58;100290.25;;;36.39;49.25
74230;BME280;62589;12.568;99.958;2023-05-29T08:33:25;100293.19;;;36.32;49.25
74230;BME280;62589;12.568;99.958;2023-05-29T08:35:51;100292.63;;;36.41;49.24
74230;BME280;62589;12.568;99.958;2023-05-29T08:38:18;100287.78;;;36.45;49.64
74230;BME280;62589;12.568;99.958;2023-05-29T08:40:47;100275.84;;;36.41;49.13
74230;BME280;62589;12.568;99.958;2023-05-29T08:43:21;100269.47;;;36.40;48.79
74230;BME280;62589;12.568;99.958;2023-05-29T08:45:51;100270.63;;;36.43;49.04
74230;BME280;62589;12.568;99.958;2023-05-29T08:48:23;100275.38;;;36.46;48.76
74230;BME280;62589;12.568;99.958;2023-05-29T08:50:54;100266.25;;;36.42;48.81
74230;BME280;62589;12.568;99.958;2023-05-29T08:53:22;100279.44;;;36.41;48.41
74230;BME280;62589;12.568;99.958;2023-05-29T08:55:50;100281.34;;;36.48;48.40
74230;BME280;62589;12.568;99.958;2023-05-29T08:58:19;100282.19;;;36.45;48.33
74230;BME280;62589;12.568;99.958;2023-05-29T09:00:49;100279.81;;;36.43;49.22
74230;BME280;62589;12.568;99.958;2023-05-29T09:03:17;100277.75;;;36.47;48.51
74230;BME280;62589;12.568;99.958;2023-05-29T09:05:45;100285.66;;;36.53;48.25
74230;BME280;62589;12.568;99.958;2023-05-29T09:08:12;100286.09;;;36.51;48.02
74230;BME280;62589;12.568;99.958;2023-05-29T09:10:41;100289.34;;;36.46;47.62
74230;BME280;62589;12.568;99.958;2023-05-29T09:13:09;100295.69;;;36.50;47.29
74230;BME280;62589;12.568;99.958;2023-05-29T09:15:36;100290.94;;;36.47;47.30
74230;BME280;62589;12.568;99.958;2023-05-29T09:18:04;100296.22;;;36.41;48.00
74230;BME280;62589;12.568;99.958;2023-05-29T09:20:31;100286.31;;;36.37;48.57
74230;BME280;62589;12.568;99.958;2023-05-29T09:23:06;100286.94;;;36.48;49.00
74230;BME280;62589;12.568;99.958;2023-05-29T09:25:34;100281.75;;;36.46;49.16
74230;BME280;62589;12.568;99.958;2023-05-29T09:28:04;100280.97;;;36.46;49.69
74230;BME280;62589;12.568;99.958;2023-05-29T09:30:42;100285.34;;;36.47;49.88
74230;BME280;62589;12.568;99.958;2023-05-29T09:33:11;100286.59;;;36.42;49.94
74230;BME280;62589;12.568;99.958;2023-05-29T09:35:43;100283.34;;;36.47;49.59
74230;BME280;62589;12.568;99.958;2023-05-29T09:38:11;100286.97;;;36.44;49.72
74230;BME280;62589;12.568;99.958;2023-05-29T09:40:39;100286.19;;;36.44;49.04
74230;BME280;62589;12.568;99.958;2023-05-29T09:43:10;100285.44;;;36.40;49.42
74230;BME280;62589;12.568;99.958;2023-05-29T09:45:40;100277.00;;;36.43;49.18
74230;BME280;62589;12.568;99.958;2023-05-29T09:48:08;100283.03;;;36.42;50.40
74230;BME280;62589;12.568;99.958;2023-05-29T09:50:37;100278.97;;;36.46;49.72
74230;BME280;62589;12.568;99.958;2023-05-29T09:53:22;100277.06;;;36.40;49.41
74230;BME280;62589;12.568;99.958;2023-05-29T09:55:56;100274.22;;;36.43;49.32
74230;BME280;62589;12.568;99.958;2023-05-29T09:58:25;100280.00;;;36.33;48.90
74230;BME280;62589;12.568;99.958;2023-05-29T10:00:52;100277.81;;;36.44;48.08
74230;BME280;62589;12.568;99.958;2023-05-29T10:03:20;100273.97;;;36.34;48.10
74230;BME280;62589;12.568;99.958;2023-05-29T10:05:51;100275.84;;;36.41;48.14
74230;BME280;62589;12.568;99.958;2023-05-29T10:08:19;100271.06;;;36.41;48.45
74230;BME280;62589;12.568;99.958;2023-05-29T10:10:51;100277.50;;;36.38;48.40
74230;BME280;62589;12.568;99.958;2023-05-29T10:13:22;100280.38;;;36.35;48.22
74230;BME280;62589;12.568;99.958;2023-05-29T10:15:53;100276.41;;;36.32;48.63
74230;BME280;62589;12.568;99.958;2023-05-29T10:18:27;100272.09;;;36.28;48.40
74230;BME280;62589;12.568;99.958;2023-05-29T10:20:58;100279.31;;;36.25;48.63
74230;BME280;62589;12.568;99.958;2023-05-29T10:23:28;100282.09;;;36.25;49.05
74230;BME280;62589;12.568;99.958;2023-05-29T10:26:15;100287.97;;;36.34;48.80
74230;BME280;62589;12.568;99.958;2023-05-29T10:28:55;100286.06;;;36.28;48.90
74230;BME280;62589;12.568;99.958;2023-05-29T10:31:38;100290.81;;;36.31;49.09
74230;BME280;62589;12.568;99.958;2023-05-29T10:37:19;100300.78;;;36.32;48.61
74230;BME280;62589;12.568;99.958;2023-05-29T10:39:46;100309.97;;;36.32;48.52
74230;BME280;62589;12.568;99.958;2023-05-29T10:45:03;100308.84;;;36.26;48.40
74230;BME280;62589;12.568;99.958;2023-05-29T10:47:29;100305.56;;;36.31;48.22
74230;BME280;62589;12.568;99.958;2023-05-29T10:50:00;100303.63;;;36.28;48.30
74230;BME280;62589;12.568;99.958;2023-05-29T10:52:26;100304.06;;;36.23;48.34
74230;BME280;62589;12.568;99.958;2023-05-29T10:54:56;100319.25;;;36.22;48.44
74230;BME280;62589;12.568;99.958;2023-05-29T10:57:24;100316.84;;;36.24;48.74
74230;BME280;62589;12.568;99.958;2023-05-29T11:00:11;100327.56;;;36.29;48.40
74230;BME280;62589;12.568;99.958;2023-05-29T11:02:44;100327.56;;;36.29;48.49
74230;BME280;62589;12.568;99.958;2023-05-29T11:05:22;100338.00;;;36.25;48.66
74230;BME280;62589;12.568;99.958;2023-05-29T11:07:52;100341.53;;;36.29;48.67
74230;BME280;62589;12.568;99.958;2023-05-29T11:10:45;100347.94;;;36.30;48.55
74230;BME280;62589;12.568;99.958;2023-05-29T11:13:26;100351.56;;;36.27;48.35
74230;BME280;62589;12.568;99.958;2023-05-29T11:18:51;100363.53;;;36.27;47.02
74230;BME280;62589;12.568;99.958;2023-05-29T11:24:02;100368.34;;;36.27;47.70
74230;BME280;62589;12.568;99.958;2023-05-29T11:26:30;100366.94;;;36.11;47.56
74230;BME280;62589;12.568;99.958;2023-05-29T11:29:14;100371.34;;;36.09;48.31
74230;BME280;62589;12.568;99.958;2023-05-29T11:31:43;100369.03;;;36.04;49.11
74230;BME280;62589;12.568;99.958;2023-05-29T11:34:14;100369.84;;;36.01;49.70
74230;BME280;62589;12.568;99.958;2023-05-29T11:36:41;100377.03;;;36.02;50.50
74230;BME280;62589;12.568;99.958;2023-05-29T11:39:09;100375.44;;;36.01;50.63
74230;BME280;62589;12.568;99.958;2023-05-29T11:41:36;100384.25;;;35.99;51.05
74230;BME280;62589;12.568;99.958;2023-05-29T11:44:04;100395.84;;;35.98;51.27
74230;BME280;62589;12.568;99.958;2023-05-29T11:46:32;100405.81;;;35.99;51.59
74230;BME280;62589;12.568;99.958;2023-05-29T11:49:00;100405.88;;;35.95;51.63
74230;BME280;62589;12.568;99.958;2023-05-29T11:51:27;100412.28;;;35.92;51.87
74230;BME280;62589;12.568;99.958;2023-05-29T11:53:54;100417.09;;;35.92;51.63
74230;BME280;62589;12.568;99.958;2023-05-29T11:56:25;100413.91;;;35.90;51.42
74230;BME280;62589;12.568;99.958;2023-05-29T11:58:52;100413.53;;;35.88;51.31
74230;BME280;62589;12.568;99.958;2023-05-29T12:01:26;100409.22;;;35.83;51.03
74230;BME280;62589;12.568;99.958;2023-05-29T12:03:54;100400.81;;;35.83;50.86
74230;BME280;62589;12.568;99.958;2023-05-29T12:06:33;100406.81;;;35.81;50.80
74230;BME280;62589;12.568;99.958;2023-05-29T12:09:00;100425.22;;;35.79;50.73
74230;BME280;62589;12.568;99.958;2023-05-29T12:11:28;100420.41;;;35.79;50.62
74230;BME280;62589;12.568;99.958;2023-05-29T12:13:58;100423.22;;;35.76;50.75
74230;BME280;62589;12.568;99.958;2023-05-29T12:16:30;100428.81;;;35.76;50.48
74230;BME280;62589;12.568;99.958;2023-05-29T12:18:57;100436.00;;;35.77;50.39
74230;BME280;62589;12.568;99.958;2023-05-29T12:21:23;100430.81;;;35.75;50.47
74230;BME280;62589;12.568;99.958;2023-05-29T12:23:54;100433.66;;;35.72;50.58
74230;BME280;62589;12.568;99.958;2023-05-29T12:26:24;100426.06;;;35.72;50.46
74230;BME280;62589;12.568;99.958;2023-05-29T12:28:52;100438.03;;;35.73;50.55
74230;BME280;62589;12.568;99.958;2023-05-29T12:31:28;100444.41;;;35.73;50.85
74230;BME280;62589;12.568;99.958;2023-05-29T12:34:02;100446.84;;;35.71;50.80
74230;BME280;62589;12.568;99.958;2023-05-29T12:36:29;100460.78;;;35.71;50.91
74230;BME280;62589;12.568;99.958;2023-05-29T12:38:56;100467.97;;;35.72;51.23
74230;BME280;62589;12.568;99.958;2023-05-29T12:41:33;100463.59;;;35.71;51.35
74230;BME280;62589;12.568;99.958;2023-05-29T12:44:02;100477.13;;;35.73;51.21
74230;BME280;62589;12.568;99.958;2023-05-29T12:46:42;100474.75;;;35.71;51.62
74230;BME280;62589;12.568;99.958;2023-05-29T12:49:17;100478.34;;;35.72;51.70
74230;BME280;62589;12.568;99.958;2023-05-29T12:51:46;100487.53;;;35.72;51.92
74230;BME280;62589;12.568;99.958;2023-05-29T12:54:14;100497.09;;;35.71;51.87
74230;BME280;62589;12.568;99.958;2023-05-29T12:56:41;100501.47;;;35.72;51.67
74230;BME280;62589;12.568;99.958;2023-05-29T12:59:08;100514.28;;;35.70;52.31